Terminal Aerodrome Forecast
Issued by NWS Wilmington, OH

Current Version | Previous Version | Text Only | Print | Product List | Glossary Off
Versions: 1 2 3 4 5 6 7 8 9 10 11 12 13 14 15 16 17

000
FTUS41 KILN 301600 AAB
TAFCMH
TAF AMD
KCMH 301639Z 3017/0112 35008G14KT P6SM SCT024 BKN030 OVC050
     FM301900 35012G18KT P6SM VCSH OVC040
      TEMPO 3021/0101 5SM -SHRA BR OVC025
     FM010100 36010KT P6SM OVC035
     FM010600 35010KT P6SM OVC018=

USA.gov is the U.S. government's official web portal to all federal, state and local government web resources and services.